< < Back
Terminal Aerodrome Forecast


Current Version              Previous Versions:   1  2  3  4  5  6  7  8  9  

Terminal Aerodrome Forecast

428
FTUS44 KBMX 231134
TAFBHM
TAF
KBHM 231134Z 2312/2412 08005KT P6SM SKC
     FM231500 12008KT P6SM SCT250=

Latest METAR

300
SAUS70 KWBC 241100
MTRBHM
METAR KBHM 241053Z 11008KT 10SM FEW030 SCT250 21/14 A3026 RMK AO2 SLP240
T02060144


USA.gov is the U.S. government's official web portal to all federal, state and local government web resources and services.